sensor_id;sensor_type;location;lat;lon;timestamp;P1;durP1;ratioP1;P2;durP2;ratioP2
5060;SDS011;2549;52.128;21.068;2023-06-22T00:00:01;21.30;;;19.07;;
5060;SDS011;2549;52.128;21.068;2023-06-22T00:02:34;21.63;;;19.03;;
5060;SDS011;2549;52.128;21.068;2023-06-22T00:05:01;21.80;;;19.50;;
5060;SDS011;2549;52.128;21.068;2023-06-22T00:07:28;23.33;;;19.43;;
5060;SDS011;2549;52.128;21.068;2023-06-22T00:09:55;22.03;;;18.87;;
5060;SDS011;2549;52.128;21.068;2023-06-22T00:12:22;22.10;;;19.87;;
5060;SDS011;2549;52.128;21.068;2023-06-22T00:14:49;25.23;;;20.43;;
5060;SDS011;2549;52.128;21.068;2023-06-22T00:17:15;29.20;;;19.90;;
5060;SDS011;2549;52.128;21.068;2023-06-22T00:19:42;29.07;;;18.90;;
5060;SDS011;2549;52.128;21.068;2023-06-22T00:22:09;20.77;;;18.53;;
5060;SDS011;2549;52.128;21.068;2023-06-22T00:24:36;29.30;;;20.13;;
5060;SDS011;2549;52.128;21.068;2023-06-22T00:27:03;24.17;;;20.20;;
5060;SDS011;2549;52.128;21.068;2023-06-22T00:29:31;25.13;;;21.20;;
5060;SDS011;2549;52.128;21.068;2023-06-22T00:31:58;25.13;;;20.57;;
5060;SDS011;2549;52.128;21.068;2023-06-22T00:34:25;25.03;;;18.40;;
5060;SDS011;2549;52.128;21.068;2023-06-22T00:36:51;33.67;;;21.27;;
5060;SDS011;2549;52.128;21.068;2023-06-22T00:39:18;23.60;;;18.80;;
5060;SDS011;2549;52.128;21.068;2023-06-22T00:41:45;24.00;;;20.33;;
5060;SDS011;2549;52.128;21.068;2023-06-22T00:44:12;23.50;;;19.50;;
5060;SDS011;2549;52.128;21.068;2023-06-22T00:46:39;23.20;;;20.00;;
5060;SDS011;2549;52.128;21.068;2023-06-22T00:49:06;21.60;;;19.37;;
5060;SDS011;2549;52.128;21.068;2023-06-22T00:51:33;24.63;;;19.93;;
5060;SDS011;2549;52.128;21.068;2023-06-22T00:54:04;22.37;;;19.97;;
5060;SDS011;2549;52.128;21.068;2023-06-22T00:56:32;22.10;;;19.60;;
5060;SDS011;2549;52.128;21.068;2023-06-22T00:58:59;24.00;;;20.57;;
5060;SDS011;2549;52.128;21.068;2023-06-22T01:01:29;21.93;;;19.47;;
5060;SDS011;2549;52.128;21.068;2023-06-22T01:03:57;32.80;;;23.10;;
5060;SDS011;2549;52.128;21.068;2023-06-22T01:06:31;24.20;;;18.60;;
5060;SDS011;2549;52.128;21.068;2023-06-22T01:09:51;24.43;;;19.00;;
5060;SDS011;2549;52.128;21.068;2023-06-22T01:11:54;37.10;;;20.00;;
5060;SDS011;2549;52.128;21.068;2023-06-22T01:14:28;23.07;;;19.17;;
5060;SDS011;2549;52.128;21.068;2023-06-22T01:17:08;26.23;;;19.87;;
5060;SDS011;2549;52.128;21.068;2023-06-22T01:19:49;23.90;;;19.83;;
5060;SDS011;2549;52.128;21.068;2023-06-22T01:22:28;22.17;;;19.73;;
5060;SDS011;2549;52.128;21.068;2023-06-22T01:25:07;26.33;;;21.20;;
5060;SDS011;2549;52.128;21.068;2023-06-22T01:27:59;21.50;;;18.50;;
5060;SDS011;2549;52.128;21.068;2023-06-22T01:30:41;23.07;;;20.40;;
5060;SDS011;2549;52.128;21.068;2023-06-22T01:33:13;24.87;;;19.13;;
5060;SDS011;2549;52.128;21.068;2023-06-22T01:35:40;25.73;;;22.00;;
5060;SDS011;2549;52.128;21.068;2023-06-22T01:38:08;26.40;;;19.80;;
5060;SDS011;2549;52.128;21.068;2023-06-22T01:40:36;23.53;;;21.00;;
5060;SDS011;2549;52.128;21.068;2023-06-22T01:43:03;25.20;;;20.73;;
5060;SDS011;2549;52.128;21.068;2023-06-22T01:45:31;21.67;;;18.50;;
5060;SDS011;2549;52.128;21.068;2023-06-22T01:47:58;23.83;;;18.90;;
5060;SDS011;2549;52.128;21.068;2023-06-22T01:50:25;23.17;;;20.13;;
5060;SDS011;2549;52.128;21.068;2023-06-22T01:52:53;33.40;;;20.90;;
5060;SDS011;2549;52.128;21.068;2023-06-22T01:55:20;24.60;;;20.23;;
5060;SDS011;2549;52.128;21.068;2023-06-22T01:57:47;24.70;;;20.40;;
5060;SDS011;2549;52.128;21.068;2023-06-22T02:00:14;36.83;;;19.70;;
5060;SDS011;2549;52.128;21.068;2023-06-22T02:02:52;26.90;;;20.53;;
5060;SDS011;2549;52.128;21.068;2023-06-22T02:05:35;26.47;;;21.40;;
5060;SDS011;2549;52.128;21.068;2023-06-22T02:08:09;23.50;;;20.60;;
5060;SDS011;2549;52.128;21.068;2023-06-22T02:10:44;25.43;;;19.63;;
5060;SDS011;2549;52.128;21.068;2023-06-22T02:13:12;26.03;;;20.50;;
5060;SDS011;2549;52.128;21.068;2023-06-22T02:15:40;24.90;;;21.77;;
5060;SDS011;2549;52.128;21.068;2023-06-22T02:18:08;23.80;;;20.63;;
5060;SDS011;2549;52.128;21.068;2023-06-22T02:20:39;27.90;;;22.87;;
5060;SDS011;2549;52.128;21.068;2023-06-22T02:23:06;24.43;;;21.70;;
5060;SDS011;2549;52.128;21.068;2023-06-22T02:25:34;29.20;;;22.40;;
5060;SDS011;2549;52.128;21.068;2023-06-22T02:28:01;33.07;;;25.30;;
5060;SDS011;2549;52.128;21.068;2023-06-22T02:30:29;25.83;;;23.00;;
5060;SDS011;2549;52.128;21.068;2023-06-22T02:32:56;26.20;;;23.40;;
5060;SDS011;2549;52.128;21.068;2023-06-22T02:35:26;29.77;;;24.63;;
5060;SDS011;2549;52.128;21.068;2023-06-22T02:37:58;31.73;;;24.50;;
5060;SDS011;2549;52.128;21.068;2023-06-22T02:40:26;32.93;;;25.13;;
5060;SDS011;2549;52.128;21.068;2023-06-22T02:42:54;26.43;;;23.67;;
5060;SDS011;2549;52.128;21.068;2023-06-22T02:45:21;30.57;;;24.40;;
5060;SDS011;2549;52.128;21.068;2023-06-22T02:47:48;34.57;;;26.40;;
5060;SDS011;2549;52.128;21.068;2023-06-22T02:50:15;42.13;;;27.37;;
5060;SDS011;2549;52.128;21.068;2023-06-22T02:52:42;34.90;;;26.60;;
5060;SDS011;2549;52.128;21.068;2023-06-22T02:55:09;33.47;;;24.87;;
5060;SDS011;2549;52.128;21.068;2023-06-22T02:57:36;38.00;;;28.77;;
5060;SDS011;2549;52.128;21.068;2023-06-22T03:00:03;41.00;;;28.50;;
5060;SDS011;2549;52.128;21.068;2023-06-22T03:02:44;40.10;;;29.33;;
5060;SDS011;2549;52.128;21.068;2023-06-22T03:05:14;36.87;;;28.00;;
5060;SDS011;2549;52.128;21.068;2023-06-22T03:07:44;39.40;;;30.47;;
5060;SDS011;2549;52.128;21.068;2023-06-22T03:10:13;44.70;;;32.03;;
5060;SDS011;2549;52.128;21.068;2023-06-22T03:12:41;48.13;;;35.07;;
5060;SDS011;2549;52.128;21.068;2023-06-22T03:15:10;49.77;;;32.77;;
5060;SDS011;2549;52.128;21.068;2023-06-22T03:17:38;61.30;;;36.97;;
5060;SDS011;2549;52.128;21.068;2023-06-22T03:20:07;53.43;;;37.60;;
5060;SDS011;2549;52.128;21.068;2023-06-22T03:22:37;55.67;;;37.10;;
5060;SDS011;2549;52.128;21.068;2023-06-22T03:25:08;54.10;;;38.10;;
5060;SDS011;2549;52.128;21.068;2023-06-22T03:27:42;49.67;;;35.17;;
5060;SDS011;2549;52.128;21.068;2023-06-22T03:30:12;49.17;;;36.20;;
5060;SDS011;2549;52.128;21.068;2023-06-22T03:32:39;57.30;;;37.60;;
5060;SDS011;2549;52.128;21.068;2023-06-22T03:35:06;53.23;;;38.10;;
5060;SDS011;2549;52.128;21.068;2023-06-22T03:37:33;61.93;;;37.57;;
5060;SDS011;2549;52.128;21.068;2023-06-22T03:40:00;52.73;;;37.93;;
5060;SDS011;2549;52.128;21.068;2023-06-22T03:42:27;60.03;;;39.30;;
5060;SDS011;2549;52.128;21.068;2023-06-22T03:44:54;53.80;;;36.80;;
5060;SDS011;2549;52.128;21.068;2023-06-22T03:47:21;55.73;;;37.37;;
5060;SDS011;2549;52.128;21.068;2023-06-22T03:49:48;55.70;;;39.10;;
5060;SDS011;2549;52.128;21.068;2023-06-22T03:52:15;48.00;;;35.57;;
5060;SDS011;2549;52.128;21.068;2023-06-22T03:54:42;54.13;;;36.13;;
5060;SDS011;2549;52.128;21.068;2023-06-22T03:57:08;53.20;;;36.37;;
5060;SDS011;2549;52.128;21.068;2023-06-22T03:59:36;55.23;;;36.00;;
5060;SDS011;2549;52.128;21.068;2023-06-22T04:02:03;48.87;;;34.27;;
5060;SDS011;2549;52.128;21.068;2023-06-22T04:04:30;45.50;;;33.83;;
5060;SDS011;2549;52.128;21.068;2023-06-22T04:06:57;46.37;;;34.70;;
5060;SDS011;2549;52.128;21.068;2023-06-22T04:09:24;43.90;;;33.60;;
5060;SDS011;2549;52.128;21.068;2023-06-22T04:11:50;49.23;;;34.90;;
5060;SDS011;2549;52.128;21.068;2023-06-22T04:14:18;40.47;;;33.40;;
5060;SDS011;2549;52.128;21.068;2023-06-22T04:16:45;49.10;;;35.10;;
5060;SDS011;2549;52.128;21.068;2023-06-22T04:19:11;43.07;;;34.57;;
5060;SDS011;2549;52.128;21.068;2023-06-22T04:21:43;40.00;;;31.77;;
5060;SDS011;2549;52.128;21.068;2023-06-22T04:24:15;42.70;;;33.80;;
5060;SDS011;2549;52.128;21.068;2023-06-22T04:26:42;47.00;;;32.90;;
5060;SDS011;2549;52.128;21.068;2023-06-22T04:29:11;41.20;;;32.77;;
5060;SDS011;2549;52.128;21.068;2023-06-22T04:31:38;44.17;;;30.23;;
5060;SDS011;2549;52.128;21.068;2023-06-22T04:34:06;45.30;;;33.73;;
5060;SDS011;2549;52.128;21.068;2023-06-22T04:36:38;47.43;;;31.70;;
5060;SDS011;2549;52.128;21.068;2023-06-22T04:39:07;40.90;;;31.07;;
5060;SDS011;2549;52.128;21.068;2023-06-22T04:41:38;42.83;;;32.93;;
5060;SDS011;2549;52.128;21.068;2023-06-22T04:44:10;48.80;;;32.83;;
5060;SDS011;2549;52.128;21.068;2023-06-22T04:47:01;35.77;;;29.47;;
5060;SDS011;2549;52.128;21.068;2023-06-22T04:49:30;40.33;;;31.17;;
5060;SDS011;2549;52.128;21.068;2023-06-22T04:52:03;45.43;;;30.47;;
5060;SDS011;2549;52.128;21.068;2023-06-22T04:54:31;44.83;;;29.70;;
5060;SDS011;2549;52.128;21.068;2023-06-22T04:57:01;42.03;;;28.97;;
5060;SDS011;2549;52.128;21.068;2023-06-22T04:59:30;35.50;;;28.57;;
5060;SDS011;2549;52.128;21.068;2023-06-22T05:01:58;42.90;;;29.17;;
5060;SDS011;2549;52.128;21.068;2023-06-22T05:04:26;39.63;;;29.40;;
5060;SDS011;2549;52.128;21.068;2023-06-22T05:07:02;42.23;;;28.77;;
5060;SDS011;2549;52.128;21.068;2023-06-22T05:09:29;36.60;;;28.10;;
5060;SDS011;2549;52.128;21.068;2023-06-22T05:11:57;39.97;;;31.07;;
5060;SDS011;2549;52.128;21.068;2023-06-22T05:14:24;34.87;;;27.90;;
5060;SDS011;2549;52.128;21.068;2023-06-22T05:16:51;37.17;;;28.37;;
5060;SDS011;2549;52.128;21.068;2023-06-22T05:19:25;37.00;;;29.43;;
5060;SDS011;2549;52.128;21.068;2023-06-22T05:21:57;33.40;;;27.13;;
5060;SDS011;2549;52.128;21.068;2023-06-22T05:24:24;42.50;;;29.23;;
5060;SDS011;2549;52.128;21.068;2023-06-22T05:26:51;37.30;;;28.87;;
5060;SDS011;2549;52.128;21.068;2023-06-22T05:29:18;40.23;;;28.90;;
5060;SDS011;2549;52.128;21.068;2023-06-22T05:31:45;37.57;;;27.30;;
5060;SDS011;2549;52.128;21.068;2023-06-22T05:34:12;36.30;;;28.17;;
5060;SDS011;2549;52.128;21.068;2023-06-22T05:36:39;36.47;;;26.60;;
5060;SDS011;2549;52.128;21.068;2023-06-22T05:39:12;31.27;;;26.40;;
5060;SDS011;2549;52.128;21.068;2023-06-22T05:41:41;37.00;;;28.17;;
5060;SDS011;2549;52.128;21.068;2023-06-22T05:44:09;32.97;;;26.57;;
5060;SDS011;2549;52.128;21.068;2023-06-22T05:46:37;34.07;;;25.47;;
5060;SDS011;2549;52.128;21.068;2023-06-22T05:49:11;30.80;;;26.40;;
5060;SDS011;2549;52.128;21.068;2023-06-22T05:51:39;34.43;;;25.67;;
5060;SDS011;2549;52.128;21.068;2023-06-22T05:54:06;31.13;;;24.90;;
5060;SDS011;2549;52.128;21.068;2023-06-22T05:56:34;33.87;;;25.77;;
5060;SDS011;2549;52.128;21.068;2023-06-22T05:59:01;35.27;;;25.53;;
5060;SDS011;2549;52.128;21.068;2023-06-22T06:01:30;30.23;;;25.30;;
5060;SDS011;2549;52.128;21.068;2023-06-22T06:04:02;34.93;;;24.40;;
5060;SDS011;2549;52.128;21.068;2023-06-22T06:06:30;31.40;;;25.30;;
5060;SDS011;2549;52.128;21.068;2023-06-22T06:08:57;38.80;;;27.03;;
5060;SDS011;2549;52.128;21.068;2023-06-22T06:11:26;32.03;;;25.40;;
5060;SDS011;2549;52.128;21.068;2023-06-22T06:13:53;32.97;;;26.17;;
5060;SDS011;2549;52.128;21.068;2023-06-22T06:16:20;36.80;;;25.67;;
5060;SDS011;2549;52.128;21.068;2023-06-22T06:18:47;29.60;;;24.53;;
5060;SDS011;2549;52.128;21.068;2023-06-22T06:21:16;30.10;;;24.13;;
5060;SDS011;2549;52.128;21.068;2023-06-22T06:23:43;28.43;;;21.93;;
5060;SDS011;2549;52.128;21.068;2023-06-22T06:26:10;28.93;;;22.70;;
5060;SDS011;2549;52.128;21.068;2023-06-22T06:28:37;33.67;;;24.20;;
5060;SDS011;2549;52.128;21.068;2023-06-22T06:31:03;36.50;;;22.03;;
5060;SDS011;2549;52.128;21.068;2023-06-22T06:33:33;29.03;;;21.60;;
5060;SDS011;2549;52.128;21.068;2023-06-22T06:36:00;30.90;;;22.97;;
5060;SDS011;2549;52.128;21.068;2023-06-22T06:38:30;28.47;;;22.33;;
5060;SDS011;2549;52.128;21.068;2023-06-22T06:40:57;25.60;;;21.20;;
5060;SDS011;2549;52.128;21.068;2023-06-22T06:43:25;32.10;;;21.57;;
5060;SDS011;2549;52.128;21.068;2023-06-22T06:45:52;29.13;;;21.63;;
5060;SDS011;2549;52.128;21.068;2023-06-22T06:48:19;24.27;;;18.93;;
5060;SDS011;2549;52.128;21.068;2023-06-22T06:50:46;28.63;;;20.87;;
5060;SDS011;2549;52.128;21.068;2023-06-22T06:53:12;22.17;;;17.67;;
5060;SDS011;2549;52.128;21.068;2023-06-22T06:55:39;24.57;;;18.63;;
5060;SDS011;2549;52.128;21.068;2023-06-22T06:58:07;27.97;;;21.13;;
5060;SDS011;2549;52.128;21.068;2023-06-22T07:00:36;21.23;;;18.20;;
5060;SDS011;2549;52.128;21.068;2023-06-22T07:03:03;23.33;;;18.10;;
5060;SDS011;2549;52.128;21.068;2023-06-22T07:05:30;21.47;;;16.13;;
5060;SDS011;2549;52.128;21.068;2023-06-22T07:07:57;20.77;;;17.57;;
5060;SDS011;2549;52.128;21.068;2023-06-22T07:10:24;24.70;;;18.97;;
5060;SDS011;2549;52.128;21.068;2023-06-22T07:12:51;24.17;;;18.50;;
5060;SDS011;2549;52.128;21.068;2023-06-22T07:15:18;21.47;;;18.30;;
5060;SDS011;2549;52.128;21.068;2023-06-22T07:17:45;22.83;;;18.67;;
5060;SDS011;2549;52.128;21.068;2023-06-22T07:20:14;21.73;;;17.67;;
5060;SDS011;2549;52.128;21.068;2023-06-22T07:22:42;20.10;;;16.37;;
5060;SDS011;2549;52.128;21.068;2023-06-22T07:25:11;17.87;;;15.70;;
5060;SDS011;2549;52.128;21.068;2023-06-22T07:27:45;18.87;;;14.00;;
5060;SDS011;2549;52.128;21.068;2023-06-22T07:30:22;19.30;;;14.93;;
5060;SDS011;2549;52.128;21.068;2023-06-22T07:32:49;19.53;;;14.90;;
5060;SDS011;2549;52.128;21.068;2023-06-22T07:35:17;19.37;;;15.27;;
5060;SDS011;2549;52.128;21.068;2023-06-22T07:37:44;20.33;;;15.77;;
5060;SDS011;2549;52.128;21.068;2023-06-22T07:40:11;16.87;;;13.90;;
5060;SDS011;2549;52.128;21.068;2023-06-22T07:42:38;15.33;;;12.40;;
5060;SDS011;2549;52.128;21.068;2023-06-22T07:45:05;13.60;;;12.10;;
5060;SDS011;2549;52.128;21.068;2023-06-22T07:47:34;23.03;;;13.13;;
5060;SDS011;2549;52.128;21.068;2023-06-22T07:50:02;14.83;;;12.13;;
5060;SDS011;2549;52.128;21.068;2023-06-22T07:52:29;12.50;;;10.70;;
5060;SDS011;2549;52.128;21.068;2023-06-22T07:54:56;12.93;;;11.03;;
5060;SDS011;2549;52.128;21.068;2023-06-22T07:57:24;14.97;;;10.10;;
5060;SDS011;2549;52.128;21.068;2023-06-22T07:59:59;10.10;;;9.10;;
5060;SDS011;2549;52.128;21.068;2023-06-22T08:02:27;11.73;;;8.40;;
5060;SDS011;2549;52.128;21.068;2023-06-22T08:04:54;13.10;;;9.80;;
5060;SDS011;2549;52.128;21.068;2023-06-22T08:07:40;11.80;;;9.00;;
5060;SDS011;2549;52.128;21.068;2023-06-22T08:10:13;12.73;;;8.43;;
5060;SDS011;2549;52.128;21.068;2023-06-22T08:12:40;11.57;;;8.30;;
5060;SDS011;2549;52.128;21.068;2023-06-22T08:15:08;9.93;;;8.67;;
5060;SDS011;2549;52.128;21.068;2023-06-22T08:17:36;10.17;;;8.27;;
5060;SDS011;2549;52.128;21.068;2023-06-22T08:20:04;9.73;;;7.30;;
5060;SDS011;2549;52.128;21.068;2023-06-22T08:22:39;7.10;;;6.47;;
5060;SDS011;2549;52.128;21.068;2023-06-22T08:25:07;10.80;;;7.57;;
5060;SDS011;2549;52.128;21.068;2023-06-22T08:27:35;13.90;;;6.83;;
5060;SDS011;2549;52.128;21.068;2023-06-22T08:30:02;8.80;;;7.63;;
5060;SDS011;2549;52.128;21.068;2023-06-22T08:32:29;7.37;;;6.67;;
5060;SDS011;2549;52.128;21.068;2023-06-22T08:34:59;7.37;;;6.30;;
5060;SDS011;2549;52.128;21.068;2023-06-22T08:37:26;6.57;;;5.90;;
5060;SDS011;2549;52.128;21.068;2023-06-22T08:39:58;10.07;;;7.43;;
5060;SDS011;2549;52.128;21.068;2023-06-22T08:42:27;8.40;;;6.70;;
5060;SDS011;2549;52.128;21.068;2023-06-22T08:44:54;6.57;;;5.97;;
5060;SDS011;2549;52.128;21.068;2023-06-22T08:47:21;7.17;;;6.37;;
5060;SDS011;2549;52.128;21.068;2023-06-22T08:49:49;7.93;;;5.50;;
5060;SDS011;2549;52.128;21.068;2023-06-22T08:52:17;6.40;;;5.50;;
5060;SDS011;2549;52.128;21.068;2023-06-22T08:54:46;5.70;;;4.83;;
5060;SDS011;2549;52.128;21.068;2023-06-22T08:57:14;6.00;;;5.40;;
5060;SDS011;2549;52.128;21.068;2023-06-22T08:59:41;5.70;;;5.17;;
5060;SDS011;2549;52.128;21.068;2023-06-22T09:02:08;9.20;;;4.57;;
5060;SDS011;2549;52.128;21.068;2023-06-22T09:04:35;7.50;;;4.70;;
5060;SDS011;2549;52.128;21.068;2023-06-22T09:07:03;7.40;;;4.27;;
5060;SDS011;2549;52.128;21.068;2023-06-22T09:09:30;7.53;;;5.10;;
5060;SDS011;2549;52.128;21.068;2023-06-22T09:11:57;6.03;;;5.47;;
5060;SDS011;2549;52.128;21.068;2023-06-22T09:14:24;6.33;;;5.50;;
5060;SDS011;2549;52.128;21.068;2023-06-22T09:16:51;5.60;;;5.00;;
5060;SDS011;2549;52.128;21.068;2023-06-22T09:19:18;6.07;;;4.90;;
5060;SDS011;2549;52.128;21.068;2023-06-22T09:21:45;8.43;;;5.57;;
5060;SDS011;2549;52.128;21.068;2023-06-22T09:24:11;6.60;;;4.70;;
5060;SDS011;2549;52.128;21.068;2023-06-22T09:26:39;4.80;;;4.20;;
5060;SDS011;2549;52.128;21.068;2023-06-22T09:29:06;4.20;;;3.87;;
5060;SDS011;2549;52.128;21.068;2023-06-22T09:31:33;4.50;;;4.10;;
5060;SDS011;2549;52.128;21.068;2023-06-22T09:33:59;9.80;;;3.87;;
5060;SDS011;2549;52.128;21.068;2023-06-22T09:36:26;6.60;;;3.50;;
5060;SDS011;2549;52.128;21.068;2023-06-22T09:38:53;4.17;;;2.87;;
5060;SDS011;2549;52.128;21.068;2023-06-22T09:41:25;3.00;;;2.80;;
5060;SDS011;2549;52.128;21.068;2023-06-22T09:43:52;3.43;;;3.00;;
5060;SDS011;2549;52.128;21.068;2023-06-22T09:46:22;11.67;;;3.67;;
5060;SDS011;2549;52.128;21.068;2023-06-22T09:48:51;4.50;;;3.60;;
5060;SDS011;2549;52.128;21.068;2023-06-22T09:51:18;6.63;;;3.53;;
5060;SDS011;2549;52.128;21.068;2023-06-22T09:53:47;6.53;;;3.60;;
5060;SDS011;2549;52.128;21.068;2023-06-22T09:56:14;7.10;;;3.27;;
5060;SDS011;2549;52.128;21.068;2023-06-22T09:58:42;4.90;;;2.87;;
5060;SDS011;2549;52.128;21.068;2023-06-22T10:01:10;3.57;;;3.27;;
5060;SDS011;2549;52.128;21.068;2023-06-22T10:03:37;3.33;;;2.83;;
5060;SDS011;2549;52.128;21.068;2023-06-22T10:06:04;3.50;;;2.97;;
5060;SDS011;2549;52.128;21.068;2023-06-22T10:08:31;4.67;;;3.30;;
5060;SDS011;2549;52.128;21.068;2023-06-22T10:10:58;5.10;;;3.30;;
5060;SDS011;2549;52.128;21.068;2023-06-22T10:13:25;4.23;;;3.07;;
5060;SDS011;2549;52.128;21.068;2023-06-22T10:15:51;3.83;;;3.20;;
5060;SDS011;2549;52.128;21.068;2023-06-22T10:18:19;4.20;;;3.37;;
5060;SDS011;2549;52.128;21.068;2023-06-22T10:20:50;3.13;;;2.80;;
5060;SDS011;2549;52.128;21.068;2023-06-22T10:23:18;3.63;;;3.30;;
5060;SDS011;2549;52.128;21.068;2023-06-22T10:25:48;3.60;;;3.40;;
5060;SDS011;2549;52.128;21.068;2023-06-22T10:28:15;3.30;;;3.00;;
5060;SDS011;2549;52.128;21.068;2023-06-22T10:30:42;5.30;;;3.90;;
5060;SDS011;2549;52.128;21.068;2023-06-22T10:33:09;6.13;;;3.47;;
5060;SDS011;2549;52.128;21.068;2023-06-22T10:35:37;3.70;;;3.40;;
5060;SDS011;2549;52.128;21.068;2023-06-22T10:38:04;4.70;;;3.97;;
5060;SDS011;2549;52.128;21.068;2023-06-22T10:40:32;7.03;;;3.30;;
5060;SDS011;2549;52.128;21.068;2023-06-22T10:42:59;4.03;;;3.60;;
5060;SDS011;2549;52.128;21.068;2023-06-22T10:45:25;7.40;;;4.00;;
5060;SDS011;2549;52.128;21.068;2023-06-22T10:47:54;3.80;;;3.33;;
5060;SDS011;2549;52.128;21.068;2023-06-22T10:50:21;10.63;;;3.80;;
5060;SDS011;2549;52.128;21.068;2023-06-22T10:52:50;5.90;;;2.83;;
5060;SDS011;2549;52.128;21.068;2023-06-22T10:55:17;6.10;;;3.30;;
5060;SDS011;2549;52.128;21.068;2023-06-22T10:57:44;4.30;;;3.50;;
5060;SDS011;2549;52.128;21.068;2023-06-22T11:00:13;3.20;;;3.00;;
5060;SDS011;2549;52.128;21.068;2023-06-22T11:02:42;4.30;;;4.00;;
5060;SDS011;2549;52.128;21.068;2023-06-22T11:05:09;3.47;;;3.27;;
5060;SDS011;2549;52.128;21.068;2023-06-22T11:07:37;3.80;;;3.40;;
5060;SDS011;2549;52.128;21.068;2023-06-22T11:10:07;6.00;;;3.77;;
5060;SDS011;2549;52.128;21.068;2023-06-22T11:12:34;4.80;;;3.83;;
5060;SDS011;2549;52.128;21.068;2023-06-22T11:15:01;6.33;;;3.90;;
5060;SDS011;2549;52.128;21.068;2023-06-22T11:17:28;3.60;;;3.30;;
5060;SDS011;2549;52.128;21.068;2023-06-22T11:19:55;4.30;;;3.10;;
5060;SDS011;2549;52.128;21.068;2023-06-22T11:22:22;3.43;;;3.13;;
5060;SDS011;2549;52.128;21.068;2023-06-22T11:24:49;4.87;;;3.50;;
5060;SDS011;2549;52.128;21.068;2023-06-22T11:27:15;3.87;;;3.57;;
5060;SDS011;2549;52.128;21.068;2023-06-22T11:29:42;3.80;;;3.50;;
5060;SDS011;2549;52.128;21.068;2023-06-22T11:32:09;3.77;;;3.37;;
5060;SDS011;2549;52.128;21.068;2023-06-22T11:34:39;8.63;;;3.77;;
5060;SDS011;2549;52.128;21.068;2023-06-22T11:37:06;6.03;;;3.33;;
5060;SDS011;2549;52.128;21.068;2023-06-22T11:39:33;9.43;;;3.30;;
5060;SDS011;2549;52.128;21.068;2023-06-22T11:42:08;3.83;;;3.53;;
5060;SDS011;2549;52.128;21.068;2023-06-22T11:44:36;4.27;;;3.77;;
5060;SDS011;2549;52.128;21.068;2023-06-22T11:47:02;8.47;;;3.07;;
5060;SDS011;2549;52.128;21.068;2023-06-22T11:49:30;8.33;;;3.60;;
5060;SDS011;2549;52.128;21.068;2023-06-22T11:51:57;3.33;;;3.13;;
5060;SDS011;2549;52.128;21.068;2023-06-22T11:54:24;3.60;;;3.30;;
5060;SDS011;2549;52.128;21.068;2023-06-22T11:56:51;5.00;;;3.83;;
5060;SDS011;2549;52.128;21.068;2023-06-22T11:59:18;4.00;;;3.60;;
5060;SDS011;2549;52.128;21.068;2023-06-22T12:01:45;4.40;;;3.67;;
5060;SDS011;2549;52.128;21.068;2023-06-22T12:04:12;4.23;;;3.30;;
5060;SDS011;2549;52.128;21.068;2023-06-22T12:06:40;5.30;;;4.07;;
5060;SDS011;2549;52.128;21.068;2023-06-22T12:09:09;4.37;;;3.70;;
5060;SDS011;2549;52.128;21.068;2023-06-22T12:11:36;10.43;;;3.50;;
5060;SDS011;2549;52.128;21.068;2023-06-22T12:14:03;9.90;;;4.37;;
5060;SDS011;2549;52.128;21.068;2023-06-22T12:16:30;4.77;;;4.13;;
5060;SDS011;2549;52.128;21.068;2023-06-22T12:18:57;5.53;;;4.00;;
5060;SDS011;2549;52.128;21.068;2023-06-22T12:21:24;5.07;;;3.40;;
5060;SDS011;2549;52.128;21.068;2023-06-22T12:23:51;4.40;;;3.70;;
5060;SDS011;2549;52.128;21.068;2023-06-22T12:26:18;8.90;;;3.73;;
5060;SDS011;2549;52.128;21.068;2023-06-22T12:28:44;3.50;;;3.30;;
5060;SDS011;2549;52.128;21.068;2023-06-22T12:31:11;5.10;;;3.90;;
5060;SDS011;2549;52.128;21.068;2023-06-22T12:33:39;3.70;;;3.50;;
5060;SDS011;2549;52.128;21.068;2023-06-22T12:36:06;3.93;;;3.43;;
5060;SDS011;2549;52.128;21.068;2023-06-22T12:38:33;12.03;;;3.67;;
5060;SDS011;2549;52.128;21.068;2023-06-22T12:41:00;3.10;;;2.90;;
5060;SDS011;2549;52.128;21.068;2023-06-22T12:43:27;3.70;;;3.50;;
5060;SDS011;2549;52.128;21.068;2023-06-22T12:45:53;5.17;;;3.77;;
5060;SDS011;2549;52.128;21.068;2023-06-22T12:48:21;3.97;;;3.60;;
5060;SDS011;2549;52.128;21.068;2023-06-22T12:50:48;3.77;;;3.50;;
5060;SDS011;2549;52.128;21.068;2023-06-22T12:53:15;4.43;;;3.50;;
5060;SDS011;2549;52.128;21.068;2023-06-22T12:55:42;9.77;;;4.17;;
5060;SDS011;2549;52.128;21.068;2023-06-22T12:58:09;4.70;;;3.10;;
5060;SDS011;2549;52.128;21.068;2023-06-22T13:00:36;5.47;;;3.30;;
5060;SDS011;2549;52.128;21.068;2023-06-22T13:03:03;3.90;;;3.60;;
5060;SDS011;2549;52.128;21.068;2023-06-22T13:05:30;10.33;;;3.23;;
5060;SDS011;2549;52.128;21.068;2023-06-22T13:07:57;3.87;;;3.57;;
5060;SDS011;2549;52.128;21.068;2023-06-22T13:10:24;4.80;;;3.40;;
5060;SDS011;2549;52.128;21.068;2023-06-22T13:12:51;4.20;;;3.30;;
5060;SDS011;2549;52.128;21.068;2023-06-22T13:15:21;3.40;;;3.20;;
5060;SDS011;2549;52.128;21.068;2023-06-22T13:17:47;4.40;;;3.10;;
5060;SDS011;2549;52.128;21.068;2023-06-22T13:20:14;2.83;;;2.70;;
5060;SDS011;2549;52.128;21.068;2023-06-22T13:22:41;3.70;;;3.27;;
5060;SDS011;2549;52.128;21.068;2023-06-22T13:25:10;7.67;;;3.83;;
5060;SDS011;2549;52.128;21.068;2023-06-22T13:27:42;3.60;;;3.30;;
5060;SDS011;2549;52.128;21.068;2023-06-22T13:30:09;5.20;;;3.60;;
5060;SDS011;2549;52.128;21.068;2023-06-22T13:32:40;3.27;;;2.90;;
5060;SDS011;2549;52.128;21.068;2023-06-22T13:35:10;3.13;;;2.83;;
5060;SDS011;2549;52.128;21.068;2023-06-22T13:37:38;6.03;;;3.17;;
5060;SDS011;2549;52.128;21.068;2023-06-22T13:40:05;5.67;;;3.40;;
5060;SDS011;2549;52.128;21.068;2023-06-22T13:42:33;4.50;;;2.80;;
5060;SDS011;2549;52.128;21.068;2023-06-22T13:45:00;4.50;;;2.93;;
5060;SDS011;2549;52.128;21.068;2023-06-22T13:47:28;3.47;;;3.00;;
5060;SDS011;2549;52.128;21.068;2023-06-22T13:49:57;4.17;;;3.83;;
5060;SDS011;2549;52.128;21.068;2023-06-22T13:52:24;6.73;;;3.13;;
5060;SDS011;2549;52.128;21.068;2023-06-22T13:54:51;3.87;;;3.57;;
5060;SDS011;2549;52.128;21.068;2023-06-22T13:57:18;3.77;;;3.20;;
5060;SDS011;2549;52.128;21.068;2023-06-22T13:59:45;3.50;;;3.20;;
5060;SDS011;2549;52.128;21.068;2023-06-22T14:02:12;3.93;;;2.93;;
5060;SDS011;2549;52.128;21.068;2023-06-22T14:04:39;4.60;;;3.47;;
5060;SDS011;2549;52.128;21.068;2023-06-22T14:07:06;5.40;;;3.20;;
5060;SDS011;2549;52.128;21.068;2023-06-22T14:09:33;3.70;;;2.23;;
5060;SDS011;2549;52.128;21.068;2023-06-22T14:12:06;5.60;;;2.63;;
5060;SDS011;2549;52.128;21.068;2023-06-22T14:14:33;3.43;;;3.13;;
5060;SDS011;2549;52.128;21.068;2023-06-22T14:17:00;5.97;;;2.73;;
5060;SDS011;2549;52.128;21.068;2023-06-22T14:19:27;3.37;;;2.67;;
5060;SDS011;2549;52.128;21.068;2023-06-22T14:21:54;6.07;;;3.10;;
5060;SDS011;2549;52.128;21.068;2023-06-22T14:24:21;6.93;;;2.87;;
5060;SDS011;2549;52.128;21.068;2023-06-22T14:26:51;4.57;;;3.03;;
5060;SDS011;2549;52.128;21.068;2023-06-22T14:29:18;3.10;;;2.90;;
5060;SDS011;2549;52.128;21.068;2023-06-22T14:31:45;5.03;;;2.53;;
5060;SDS011;2549;52.128;21.068;2023-06-22T14:34:13;2.97;;;2.50;;
5060;SDS011;2549;52.128;21.068;2023-06-22T14:36:41;3.47;;;3.27;;
5060;SDS011;2549;52.128;21.068;2023-06-22T14:39:09;3.10;;;2.90;;
5060;SDS011;2549;52.128;21.068;2023-06-22T14:41:36;2.50;;;2.30;;
5060;SDS011;2549;52.128;21.068;2023-06-22T14:44:03;3.77;;;3.03;;
5060;SDS011;2549;52.128;21.068;2023-06-22T14:46:30;5.47;;;3.50;;
5060;SDS011;2549;52.128;21.068;2023-06-22T14:48:57;7.53;;;2.93;;
5060;SDS011;2549;52.128;21.068;2023-06-22T14:51:23;3.57;;;3.27;;